createdAt,value
2019-05-19T00:02:26.214Z,13.05
2019-05-19T00:04:55.052Z,13.11
2019-05-19T00:07:23.866Z,12.93
2019-05-19T00:09:52.692Z,12.93
2019-05-19T00:12:21.492Z,12.94
2019-05-19T00:14:50.261Z,12.81
2019-05-19T00:17:19.025Z,12.78
2019-05-19T00:19:47.812Z,12.80
2019-05-19T00:22:16.691Z,12.79
2019-05-19T00:24:45.452Z,12.80
2019-05-19T00:27:14.260Z,12.82
2019-05-19T00:29:43.054Z,12.79
2019-05-19T00:32:11.855Z,12.77
2019-05-19T00:34:40.653Z,12.70
2019-05-19T00:37:09.413Z,12.64
2019-05-19T00:39:38.173Z,12.63
2019-05-19T00:42:06.972Z,12.55
2019-05-19T00:44:35.694Z,12.52
2019-05-19T00:47:04.495Z,12.53
2019-05-19T00:49:41.041Z,12.50
2019-05-19T00:52:03.783Z,12.45
2019-05-19T00:54:32.554Z,12.42
2019-05-19T00:57:03.633Z,12.30
2019-05-19T00:59:33.734Z,12.32
2019-05-19T01:02:02.558Z,12.27
2019-05-19T01:04:31.437Z,12.38
2019-05-19T01:07:00.174Z,12.35
2019-05-19T01:09:28.925Z,12.30
2019-05-19T01:11:57.736Z,12.26
2019-05-19T01:14:26.494Z,12.19
2019-05-19T01:16:55.314Z,12.19
2019-05-19T01:19:24.094Z,12.17
2019-05-19T01:21:53.655Z,12.06
2019-05-19T01:24:22.554Z,11.99
2019-05-19T01:26:51.342Z,11.99
2019-05-19T01:29:20.154Z,11.95
2019-05-19T01:31:49.035Z,11.88
2019-05-19T01:34:17.774Z,11.86
2019-05-19T01:36:46.576Z,11.74
2019-05-19T01:39:15.354Z,11.57
2019-05-19T01:41:44.174Z,11.75
2019-05-19T01:44:12.962Z,11.49
2019-05-19T01:46:41.714Z,11.30
2019-05-19T01:49:10.514Z,11.46
2019-05-19T01:51:39.357Z,10.81
2019-05-19T01:54:08.154Z,10.70
2019-05-19T01:56:36.914Z,10.55
2019-05-19T01:59:05.674Z,10.33
2019-05-19T02:01:34.516Z,10.30
2019-05-19T02:04:03.282Z,10.26
2019-05-19T02:06:32.137Z,10.27
2019-05-19T02:09:00.894Z,10.36
2019-05-19T02:11:29.680Z,10.45
2019-05-19T02:13:58.454Z,10.45
2019-05-19T02:16:27.216Z,10.51
2019-05-19T02:18:56.002Z,10.56
2019-05-19T02:21:24.759Z,10.62
2019-05-19T02:23:53.535Z,10.54
2019-05-19T02:26:22.318Z,10.72
2019-05-19T02:28:51.061Z,10.71
2019-05-19T02:31:19.869Z,10.61
2019-05-19T02:33:48.635Z,10.43
2019-05-19T02:36:17.535Z,10.30
2019-05-19T02:38:46.301Z,10.26
2019-05-19T02:41:17.595Z,10.32
2019-05-19T02:43:48.095Z,10.36
2019-05-19T02:46:17.536Z,10.25
2019-05-19T02:48:47.074Z,10.13
2019-05-19T02:51:19.336Z,10.08
2019-05-19T02:53:49.100Z,10.08
2019-05-19T02:56:18.324Z,10.18
2019-05-19T02:58:47.776Z,10.18
2019-05-19T03:01:16.574Z,10.20
2019-05-19T03:03:45.382Z,10.24
2019-05-19T03:06:14.137Z,10.19
2019-05-19T03:08:42.914Z,10.29
2019-05-19T03:11:11.696Z,10.33
2019-05-19T03:13:40.494Z,10.30
2019-05-19T03:16:09.276Z,10.32
2019-05-19T03:18:38.035Z,10.30
2019-05-19T03:21:10.881Z,10.46
2019-05-19T03:23:37.314Z,10.24
2019-05-19T03:26:06.156Z,10.09
2019-05-19T03:28:34.897Z,9.98
2019-05-19T03:31:14.126Z,9.95
2019-05-19T03:33:44.435Z,9.96
2019-05-19T03:36:13.197Z,9.99
2019-05-19T03:38:42.015Z,10.16
2019-05-19T03:41:10.787Z,10.19
2019-05-19T03:43:39.538Z,10.27
2019-05-19T03:46:08.434Z,10.31
2019-05-19T03:48:37.316Z,10.38
2019-05-19T03:51:06.134Z,10.38
2019-05-19T03:53:34.876Z,10.51
2019-05-19T03:56:03.644Z,10.57
2019-05-19T03:58:32.442Z,10.62
2019-05-19T04:01:01.319Z,10.68
2019-05-19T04:03:30.134Z,10.75
2019-05-19T04:05:58.877Z,10.90
2019-05-19T04:08:27.714Z,11.10
2019-05-19T04:10:56.514Z,11.30
2019-05-19T04:13:25.254Z,11.34
2019-05-19T04:15:54.072Z,11.43
2019-05-19T04:18:22.836Z,11.59
2019-05-19T04:20:51.655Z,11.75
2019-05-19T04:23:20.441Z,11.92
2019-05-19T04:25:49.197Z,11.97
2019-05-19T04:28:18.015Z,12.10
2019-05-19T04:30:46.815Z,12.11
2019-05-19T04:33:15.655Z,12.15
2019-05-19T04:35:44.540Z,12.04
2019-05-19T04:38:13.395Z,12.19
2019-05-19T04:40:43.406Z,12.30
2019-05-19T04:43:12.138Z,12.37
2019-05-19T04:45:40.972Z,12.48
2019-05-19T04:48:09.975Z,12.60
2019-05-19T04:50:38.833Z,12.72
2019-05-19T04:53:07.616Z,12.89
2019-05-19T04:55:36.376Z,13.04
2019-05-19T04:58:05.174Z,13.15
2019-05-19T05:00:33.956Z,13.40
2019-05-19T05:03:02.676Z,13.61
2019-05-19T05:05:31.435Z,13.63
2019-05-19T05:08:00.198Z,13.80
2019-05-19T05:10:29.034Z,13.92
2019-05-19T05:12:57.756Z,13.97
2019-05-19T05:15:26.534Z,14.15
2019-05-19T05:17:55.335Z,14.14
2019-05-19T05:20:24.114Z,14.31
2019-05-19T05:22:52.918Z,14.29
2019-05-19T05:25:21.654Z,14.33
2019-05-19T05:27:50.474Z,14.50
2019-05-19T05:30:19.241Z,14.61
2019-05-19T05:32:48.015Z,14.76
2019-05-19T05:35:16.816Z,14.90
2019-05-19T05:37:45.635Z,15.03
2019-05-19T05:40:14.415Z,15.17
2019-05-19T05:42:43.249Z,15.34
2019-05-19T05:45:12.479Z,15.52
2019-05-19T05:47:41.276Z,15.51
2019-05-19T05:50:10.343Z,15.56
2019-05-19T05:52:39.349Z,15.70
2019-05-19T05:55:08.194Z,15.78
2019-05-19T05:57:36.956Z,15.86
2019-05-19T06:00:08.790Z,16.01
2019-05-19T06:02:37.735Z,16.11
2019-05-19T06:05:08.017Z,16.27
2019-05-19T06:07:36.791Z,16.33
2019-05-19T06:10:07.552Z,16.48
2019-05-19T06:12:36.312Z,16.67
2019-05-19T06:15:05.671Z,16.86
2019-05-19T06:17:34.496Z,16.95
2019-05-19T06:20:04.251Z,17.03
2019-05-19T06:22:33.474Z,17.19
2019-05-19T06:25:02.357Z,17.29
2019-05-19T06:27:31.472Z,17.43
2019-05-19T06:30:00.333Z,17.56
2019-05-19T06:32:30.672Z,17.63
2019-05-19T06:34:59.505Z,17.82
2019-05-19T06:37:28.272Z,17.93
2019-05-19T06:39:57.052Z,18.07
2019-05-19T06:42:25.893Z,18.08
2019-05-19T06:44:54.659Z,18.22
2019-05-19T06:47:23.444Z,18.30
2019-05-19T06:49:52.227Z,18.33
2019-05-19T06:52:21.014Z,18.36
2019-05-19T06:54:49.857Z,18.48
2019-05-19T06:57:18.605Z,18.60
2019-05-19T06:59:47.372Z,18.75
2019-05-19T07:02:16.194Z,18.88
2019-05-19T07:04:45.011Z,18.97
2019-05-19T07:07:13.865Z,19.06
2019-05-19T07:09:55.967Z,19.19
2019-05-19T07:12:13.193Z,19.23
2019-05-19T07:14:41.953Z,19.32
2019-05-19T07:17:10.737Z,19.41
2019-05-19T07:19:39.533Z,19.23
2019-05-19T07:22:08.291Z,19.25
2019-05-19T07:24:37.053Z,19.13
2019-05-19T07:27:05.851Z,19.17
2019-05-19T07:29:34.575Z,19.27
2019-05-19T07:32:03.412Z,19.39
2019-05-19T07:34:32.313Z,19.65
2019-05-19T07:37:01.153Z,19.85
2019-05-19T07:39:29.954Z,20.10
2019-05-19T07:41:58.693Z,20.26
2019-05-19T07:44:27.492Z,20.45
2019-05-19T07:46:56.255Z,20.38
2019-05-19T07:49:25.074Z,20.29
2019-05-19T07:51:53.814Z,20.38
2019-05-19T07:54:22.565Z,20.56
2019-05-19T07:56:51.330Z,20.83
2019-05-19T07:59:20.106Z,21.04
2019-05-19T08:01:48.911Z,21.16
2019-05-19T08:04:17.656Z,21.30
2019-05-19T08:06:46.388Z,21.32
2019-05-19T08:09:15.173Z,21.23
2019-05-19T08:11:44.032Z,21.03
2019-05-19T08:14:12.808Z,20.93
2019-05-19T08:16:41.593Z,20.94
2019-05-19T08:19:10.412Z,21.26
2019-05-19T08:21:39.151Z,21.36
2019-05-19T08:24:07.912Z,21.42
2019-05-19T08:26:36.694Z,21.66
2019-05-19T08:29:05.496Z,21.97
2019-05-19T08:31:34.293Z,22.20
2019-05-19T08:34:03.106Z,22.46
2019-05-19T08:36:31.976Z,22.51
2019-05-19T08:39:00.752Z,22.78
2019-05-19T08:41:29.531Z,22.92
2019-05-19T08:43:58.311Z,23.05
2019-05-19T08:46:27.157Z,23.20
2019-05-19T08:48:58.482Z,23.35
2019-05-19T08:51:26.495Z,23.56
2019-05-19T08:53:55.334Z,23.63
2019-05-19T08:56:24.114Z,23.79
2019-05-19T08:58:52.934Z,23.86
2019-05-19T09:01:21.716Z,24.02
2019-05-19T09:03:50.555Z,24.15
2019-05-19T09:06:19.315Z,24.34
2019-05-19T09:08:48.205Z,24.41
2019-05-19T09:11:16.996Z,24.59
2019-05-19T09:13:45.998Z,24.72
2019-05-19T09:16:14.874Z,24.92
2019-05-19T09:18:43.616Z,25.06
2019-05-19T09:21:12.382Z,25.16
2019-05-19T09:23:41.155Z,25.17
2019-05-19T09:26:09.935Z,25.39
2019-05-19T09:28:38.721Z,25.26
2019-05-19T09:31:07.475Z,25.29
2019-05-19T09:33:36.293Z,25.02
2019-05-19T09:36:05.934Z,25.24
2019-05-19T09:38:34.663Z,25.42
2019-05-19T09:41:03.553Z,25.76
2019-05-19T09:43:32.291Z,25.53
2019-05-19T09:46:01.113Z,25.93
2019-05-19T09:48:29.863Z,26.07
2019-05-19T09:50:58.712Z,26.11
2019-05-19T09:53:33.436Z,26.44
2019-05-19T09:56:02.152Z,26.71
2019-05-19T09:58:30.993Z,27.05
2019-05-19T10:00:59.712Z,27.11
2019-05-19T10:03:28.472Z,26.70
2019-05-19T10:05:57.231Z,25.70
2019-05-19T10:08:26.240Z,26.07
2019-05-19T10:11:14.155Z,26.69
2019-05-19T10:13:42.892Z,27.23
2019-05-19T10:16:11.653Z,27.57
2019-05-19T10:18:40.474Z,27.23
2019-05-19T10:21:09.215Z,27.59
2019-05-19T10:23:38.012Z,28.02
2019-05-19T10:26:06.772Z,28.53
2019-05-19T10:28:35.544Z,28.85
2019-05-19T10:31:04.333Z,28.12
2019-05-19T10:33:33.092Z,28.22
2019-05-19T10:36:01.844Z,28.66
2019-05-19T10:38:30.619Z,28.31
2019-05-19T10:40:59.433Z,28.64
2019-05-19T10:43:28.211Z,28.33
2019-05-19T10:46:00.083Z,28.58
2019-05-19T10:48:28.862Z,29.07
2019-05-19T10:50:57.615Z,28.67
2019-05-19T10:53:26.435Z,27.84
2019-05-19T10:55:55.194Z,28.19
2019-05-19T10:58:23.960Z,29.00
2019-05-19T11:00:52.737Z,29.20
2019-05-19T11:03:21.520Z,29.80
2019-05-19T11:05:50.334Z,30.20
2019-05-19T11:08:19.155Z,30.19
2019-05-19T11:10:47.976Z,30.76
2019-05-19T11:13:16.759Z,31.32
2019-05-19T11:15:45.534Z,31.58
2019-05-19T11:18:14.395Z,31.39
2019-05-19T11:20:43.155Z,29.78
2019-05-19T11:23:11.966Z,28.91
2019-05-19T11:25:51.083Z,28.17
2019-05-19T11:28:11.206Z,28.01
2019-05-19T11:30:39.999Z,27.38
2019-05-19T11:33:08.817Z,27.03
2019-05-19T11:35:37.614Z,27.42
2019-05-19T11:38:06.374Z,28.15
2019-05-19T11:40:35.178Z,28.80
2019-05-19T11:43:03.935Z,28.39
2019-05-19T11:45:32.795Z,28.27
2019-05-19T11:48:01.575Z,28.26
2019-05-19T11:50:30.301Z,29.34
2019-05-19T11:52:59.115Z,29.86
2019-05-19T11:55:27.855Z,30.72
2019-05-19T11:57:56.675Z,30.76
2019-05-19T12:00:25.438Z,29.31
2019-05-19T12:02:54.194Z,27.89
2019-05-19T12:05:23.066Z,27.13
2019-05-19T12:07:51.855Z,27.41
2019-05-19T12:10:20.685Z,27.37
2019-05-19T12:12:49.435Z,27.79
2019-05-19T12:15:18.374Z,28.44
2019-05-19T12:17:47.155Z,29.41
2019-05-19T12:20:16.014Z,29.12
2019-05-19T12:22:44.837Z,30.18
2019-05-19T12:25:14.015Z,30.65
2019-05-19T12:27:42.775Z,30.26
2019-05-19T12:30:14.474Z,29.73
2019-05-19T12:32:43.254Z,29.36
2019-05-19T12:35:12.374Z,29.58
2019-05-19T12:37:41.135Z,30.08
2019-05-19T12:40:10.095Z,31.13
2019-05-19T12:42:38.894Z,31.92
2019-05-19T12:45:11.438Z,32.51
2019-05-19T12:47:40.367Z,32.70
2019-05-19T12:50:09.815Z,31.07
2019-05-19T12:52:38.567Z,31.36
2019-05-19T12:55:07.708Z,31.36
2019-05-19T12:57:36.595Z,31.28
2019-05-19T13:00:06.635Z,31.96
2019-05-19T13:02:37.990Z,32.10
2019-05-19T13:05:07.006Z,31.63
2019-05-19T13:07:35.775Z,31.74
2019-05-19T13:10:08.514Z,32.17
2019-05-19T13:12:37.318Z,32.17
2019-05-19T13:15:07.598Z,32.32
2019-05-19T13:17:36.416Z,31.51
2019-05-19T13:20:05.841Z,31.90
2019-05-19T13:22:34.635Z,32.79
2019-05-19T13:25:03.835Z,33.67
2019-05-19T13:27:32.595Z,34.00
2019-05-19T13:30:01.501Z,33.41
2019-05-19T13:32:30.274Z,32.53
2019-05-19T13:34:59.035Z,32.40
2019-05-19T13:37:27.836Z,30.37
2019-05-19T13:39:56.599Z,30.37
2019-05-19T13:42:25.450Z,30.62
2019-05-19T13:44:54.194Z,31.01
2019-05-19T13:47:22.995Z,31.21
2019-05-19T13:49:51.775Z,31.06
2019-05-19T13:52:20.636Z,30.82
2019-05-19T13:54:49.451Z,30.62
2019-05-19T13:57:18.234Z,30.42
2019-05-19T13:59:47.017Z,30.56
2019-05-19T14:02:15.795Z,30.93
2019-05-19T14:04:44.580Z,31.24
2019-05-19T14:07:13.355Z,31.36
2019-05-19T14:09:42.117Z,30.45
2019-05-19T14:12:10.929Z,30.02
2019-05-19T14:14:39.679Z,29.69
2019-05-19T14:17:08.434Z,29.79
2019-05-19T14:19:37.292Z,29.53
2019-05-19T14:22:06.112Z,29.77
2019-05-19T14:24:34.871Z,29.93
2019-05-19T14:27:03.672Z,30.25
2019-05-19T14:29:32.514Z,30.05
2019-05-19T14:32:01.312Z,30.01
2019-05-19T14:34:30.097Z,29.91
2019-05-19T14:36:58.855Z,30.00
2019-05-19T14:39:27.637Z,30.09
2019-05-19T14:41:57.994Z,29.98
2019-05-19T14:44:26.775Z,30.24
2019-05-19T14:46:55.573Z,30.84
2019-05-19T14:49:24.356Z,31.54
2019-05-19T14:51:53.136Z,31.94
2019-05-19T14:54:21.916Z,32.02
2019-05-19T14:56:50.694Z,31.83
2019-05-19T14:59:19.548Z,31.26
2019-05-19T15:01:48.359Z,30.64
2019-05-19T15:04:17.122Z,29.27
2019-05-19T15:06:45.875Z,25.63
2019-05-19T15:09:14.655Z,23.87
2019-05-19T15:11:43.455Z,22.66
2019-05-19T15:14:12.312Z,22.09
2019-05-19T15:16:41.075Z,21.67
2019-05-19T15:19:09.894Z,21.28
2019-05-19T15:21:38.695Z,21.00
2019-05-19T15:24:07.463Z,20.81
2019-05-19T15:26:36.275Z,20.57
2019-05-19T15:29:05.035Z,20.54
2019-05-19T15:31:33.762Z,20.39
2019-05-19T15:34:02.554Z,20.11
2019-05-19T15:36:31.323Z,20.03
2019-05-19T15:39:00.113Z,19.82
2019-05-19T15:41:28.875Z,19.60
2019-05-19T15:43:57.637Z,19.59
2019-05-19T15:46:26.412Z,19.47
2019-05-19T15:48:55.173Z,19.62
2019-05-19T15:51:28.976Z,19.95
2019-05-19T15:53:54.493Z,20.09
2019-05-19T15:56:23.313Z,20.29
2019-05-19T15:58:52.089Z,20.36
2019-05-19T16:01:20.860Z,20.45
2019-05-19T16:03:49.724Z,20.58
2019-05-19T16:06:18.517Z,20.29
2019-05-19T16:08:47.293Z,20.31
2019-05-19T16:11:16.052Z,20.30
2019-05-19T16:13:44.832Z,20.19
2019-05-19T16:16:13.652Z,20.12
2019-05-19T16:18:42.411Z,20.17
2019-05-19T16:21:11.172Z,20.24
2019-05-19T16:23:39.972Z,20.21
2019-05-19T16:26:08.754Z,20.12
2019-05-19T16:28:37.575Z,20.18
2019-05-19T16:31:06.534Z,20.23
2019-05-19T16:33:35.375Z,20.24
2019-05-19T16:36:07.575Z,20.36
2019-05-19T16:38:34.636Z,20.38
2019-05-19T16:41:03.411Z,20.51
2019-05-19T16:43:32.150Z,20.57
2019-05-19T16:46:00.913Z,20.55
2019-05-19T16:48:29.720Z,20.56
2019-05-19T16:50:58.504Z,20.55
2019-05-19T16:53:27.315Z,20.52
2019-05-19T16:55:56.077Z,20.57
2019-05-19T16:58:24.874Z,20.52
2019-05-19T17:00:53.655Z,20.57
2019-05-19T17:03:22.594Z,20.49
2019-05-19T17:05:51.363Z,20.49
2019-05-19T17:08:20.135Z,20.49
2019-05-19T17:10:48.935Z,20.47
2019-05-19T17:13:17.776Z,20.44
2019-05-19T17:15:46.555Z,20.37
2019-05-19T17:18:15.321Z,20.28
2019-05-19T17:20:44.095Z,20.27
2019-05-19T17:23:12.877Z,20.21
2019-05-19T17:25:41.674Z,20.21
2019-05-19T17:28:10.454Z,20.17
2019-05-19T17:30:39.282Z,20.08
2019-05-19T17:33:08.074Z,20.02
2019-05-19T17:35:36.921Z,19.95
2019-05-19T17:38:05.696Z,19.87
2019-05-19T17:40:34.594Z,19.57
2019-05-19T17:43:03.498Z,19.28
2019-05-19T17:45:32.275Z,18.96
2019-05-19T17:48:09.734Z,18.96
2019-05-19T17:50:35.755Z,19.02
2019-05-19T17:53:04.955Z,18.85
2019-05-19T17:55:35.168Z,18.67
2019-05-19T17:58:04.678Z,18.60
2019-05-19T18:00:41.434Z,18.35
2019-05-19T18:03:10.654Z,18.37
2019-05-19T18:05:39.615Z,18.26
2019-05-19T18:08:08.460Z,18.03
2019-05-19T18:10:37.383Z,17.97
2019-05-19T18:13:06.231Z,17.89
2019-05-19T18:15:35.792Z,17.86
2019-05-19T18:18:04.712Z,17.80
2019-05-19T18:20:33.600Z,17.65
2019-05-19T18:23:02.487Z,17.55
2019-05-19T18:25:31.441Z,17.56
2019-05-19T18:28:00.355Z,17.52
2019-05-19T18:30:29.255Z,17.52
2019-05-19T18:32:58.081Z,17.41
2019-05-19T18:35:26.915Z,17.36
2019-05-19T18:37:55.815Z,17.39
2019-05-19T18:40:24.695Z,17.36
2019-05-19T18:42:53.485Z,17.37
2019-05-19T18:45:22.345Z,17.39
2019-05-19T18:47:51.201Z,17.31
2019-05-19T18:50:20.835Z,17.22
2019-05-19T18:52:49.735Z,17.11
2019-05-19T18:55:18.583Z,16.91
2019-05-19T18:57:47.395Z,16.98
2019-05-19T19:00:19.415Z,17.09
2019-05-19T19:02:48.235Z,17.04
2019-05-19T19:05:17.135Z,16.90
2019-05-19T19:07:50.545Z,16.90
2019-05-19T19:10:20.114Z,16.77
2019-05-19T19:12:49.075Z,16.74
2019-05-19T19:15:18.075Z,16.68
2019-05-19T19:17:46.915Z,16.72
2019-05-19T19:20:16.085Z,16.73
2019-05-19T19:22:44.901Z,16.73
2019-05-19T19:25:13.895Z,16.48
2019-05-19T19:27:42.674Z,16.29
2019-05-19T19:30:11.917Z,16.02
2019-05-19T19:32:40.795Z,15.84
2019-05-19T19:35:10.195Z,15.89
2019-05-19T19:37:39.074Z,16.04
2019-05-19T19:40:08.637Z,16.10
2019-05-19T19:42:37.417Z,16.12
2019-05-19T19:45:06.859Z,16.18
2019-05-19T19:47:35.635Z,16.22
2019-05-19T19:50:06.475Z,16.28
2019-05-19T19:52:35.339Z,16.29
2019-05-19T19:55:04.876Z,16.29
2019-05-19T19:57:33.652Z,16.23
2019-05-19T20:00:02.480Z,16.18
2019-05-19T20:02:31.317Z,16.06
2019-05-19T20:05:00.154Z,15.68
2019-05-19T20:07:28.915Z,15.79
2019-05-19T20:09:57.717Z,15.84
2019-05-19T20:12:26.550Z,15.88
2019-05-19T20:14:55.390Z,16.02
2019-05-19T20:17:24.156Z,16.00
2019-05-19T20:19:53.990Z,16.05
2019-05-19T20:22:22.830Z,16.04
2019-05-19T20:24:51.790Z,16.04
2019-05-19T20:27:20.590Z,16.04
2019-05-19T20:29:49.469Z,16.04
2019-05-19T20:32:18.268Z,16.01
2019-05-19T20:34:47.028Z,15.88
2019-05-19T20:37:15.790Z,15.85
2019-05-19T20:39:44.589Z,15.77
2019-05-19T20:42:13.429Z,15.58
2019-05-19T20:44:42.188Z,15.18
2019-05-19T20:47:11.067Z,14.94
2019-05-19T20:49:39.947Z,14.89
2019-05-19T20:52:08.747Z,14.87
2019-05-19T20:54:37.668Z,14.97
2019-05-19T20:57:06.468Z,15.17
2019-05-19T20:59:35.269Z,15.19
2019-05-19T21:02:04.077Z,15.16
2019-05-19T21:04:32.839Z,14.98
2019-05-19T21:07:01.636Z,14.89
2019-05-19T21:09:30.439Z,14.82
2019-05-19T21:11:59.166Z,14.90
2019-05-19T21:14:27.998Z,15.00
2019-05-19T21:16:56.798Z,14.98
2019-05-19T21:19:25.637Z,14.89
2019-05-19T21:21:54.437Z,14.80
2019-05-19T21:24:23.238Z,14.82
2019-05-19T21:26:52.077Z,14.81
2019-05-19T21:29:20.838Z,14.73
2019-05-19T21:31:49.716Z,14.89
2019-05-19T21:34:18.520Z,14.76
2019-05-19T21:36:47.317Z,14.42
2019-05-19T21:39:16.077Z,14.07
2019-05-19T21:41:44.916Z,13.89
2019-05-19T21:44:13.815Z,13.79
2019-05-19T21:46:42.640Z,13.75
2019-05-19T21:49:11.481Z,13.73
2019-05-19T21:51:40.277Z,13.64
2019-05-19T21:54:09.078Z,13.51
2019-05-19T21:56:37.876Z,13.27
2019-05-19T21:59:06.649Z,13.07
2019-05-19T22:01:35.639Z,12.96
2019-05-19T22:04:04.516Z,13.14
2019-05-19T22:06:34.836Z,12.98
2019-05-19T22:09:04.756Z,12.90
2019-05-19T22:11:33.584Z,12.76
2019-05-19T22:14:02.477Z,12.59
2019-05-19T22:16:31.263Z,12.51
2019-05-19T22:19:00.116Z,12.51
2019-05-19T22:21:28.886Z,12.66
2019-05-19T22:23:57.679Z,12.58
2019-05-19T22:26:26.687Z,12.67
2019-05-19T22:28:55.437Z,12.67
2019-05-19T22:31:36.263Z,12.73
2019-05-19T22:33:58.198Z,12.66
2019-05-19T22:36:26.996Z,12.58
2019-05-19T22:38:55.838Z,12.58
2019-05-19T22:41:24.596Z,12.65
2019-05-19T22:43:53.366Z,12.75
2019-05-19T22:46:22.204Z,12.84
2019-05-19T22:48:51.038Z,12.91
2019-05-19T22:51:22.690Z,12.97
2019-05-19T22:53:50.357Z,12.96
2019-05-19T22:56:19.198Z,12.97
2019-05-19T22:58:47.918Z,13.00
2019-05-19T23:01:16.719Z,12.99
2019-05-19T23:03:45.527Z,12.95
2019-05-19T23:06:14.358Z,13.05
2019-05-19T23:08:43.237Z,13.12
2019-05-19T23:11:11.998Z,13.15
2019-05-19T23:13:40.804Z,13.03
2019-05-19T23:16:09.679Z,13.02
2019-05-19T23:18:38.518Z,13.02
2019-05-19T23:21:07.320Z,13.04
2019-05-19T23:23:36.089Z,13.02
2019-05-19T23:26:04.962Z,13.04
2019-05-19T23:28:33.757Z,12.99
2019-05-19T23:31:02.597Z,12.91
2019-05-19T23:33:31.405Z,12.84
2019-05-19T23:36:00.197Z,12.85
2019-05-19T23:38:28.982Z,12.85
2019-05-19T23:40:57.760Z,12.93
2019-05-19T23:43:26.638Z,13.01
2019-05-19T23:45:55.437Z,12.94
2019-05-19T23:48:24.236Z,12.60
2019-05-19T23:50:53.150Z,12.30
2019-05-19T23:53:21.997Z,11.97
2019-05-19T23:55:50.796Z,11.93
2019-05-19T23:58:19.558Z,12.06
